createdAt,value
2018-12-24T00:01:00.015Z,86.80
2018-12-24T00:02:24.068Z,86.78
2018-12-24T00:05:12.459Z,86.37
2018-12-24T00:06:36.569Z,86.36
2018-12-24T00:07:41.486Z,86.20
2018-12-24T00:09:05.637Z,86.11
2018-12-24T00:11:34.483Z,86.20
2018-12-24T00:13:18.000Z,86.10
2018-12-24T00:15:47.136Z,86.51
2018-12-24T00:17:11.116Z,86.49
2018-12-24T00:18:16.327Z,86.52
2018-12-24T00:19:21.315Z,86.33
2018-12-24T00:20:26.227Z,86.33
2018-12-24T00:21:31.139Z,86.35
2018-12-24T00:24:00.316Z,86.12
2018-12-24T00:25:05.291Z,86.29
2018-12-24T00:26:10.837Z,86.43
2018-12-24T00:27:15.753Z,86.42
2018-12-24T00:28:20.659Z,86.35
2018-12-24T00:29:25.575Z,86.47
2018-12-24T00:30:30.501Z,86.52
2018-12-24T00:31:35.413Z,86.26
2018-12-24T00:32:40.310Z,86.16
2018-12-24T00:33:45.210Z,86.09
2018-12-24T00:34:50.112Z,86.04
2018-12-24T00:35:55.276Z,86.02
2018-12-24T00:37:00.442Z,85.93
2018-12-24T00:38:05.354Z,85.84
2018-12-24T00:39:10.266Z,85.95
2018-12-24T00:40:15.163Z,86.01
2018-12-24T00:41:20.079Z,86.06
2018-12-24T00:42:25.268Z,85.85
2018-12-24T00:43:49.393Z,85.64
2018-12-24T00:44:54.311Z,85.66
2018-12-24T00:46:18.424Z,85.64
2018-12-24T00:47:23.657Z,85.69
2018-12-24T00:48:28.579Z,85.55
2018-12-24T00:49:52.677Z,85.46
2018-12-24T00:50:57.580Z,85.63
2018-12-24T00:52:02.478Z,85.63
2018-12-24T00:53:07.431Z,85.76
2018-12-24T00:54:12.330Z,85.62
2018-12-24T00:55:17.587Z,85.61
2018-12-24T00:56:34.343Z,85.53
2018-12-24T00:59:21.068Z,85.59
2018-12-24T01:00:25.977Z,85.56
2018-12-24T01:01:30.881Z,85.64
2018-12-24T01:02:35.781Z,85.68
2018-12-24T01:03:40.679Z,85.63
2018-12-24T01:04:45.602Z,85.49
2018-12-24T01:05:51.163Z,85.36
2018-12-24T01:06:56.063Z,85.37
2018-12-24T01:08:01.428Z,85.33
2018-12-24T01:09:27.136Z,85.26
2018-12-24T01:10:32.064Z,85.31
2018-12-24T01:11:36.962Z,85.16
2018-12-24T01:12:41.868Z,85.14
2018-12-24T01:13:46.775Z,85.16
2018-12-24T01:19:15.323Z,85.05
2018-12-24T01:20:39.420Z,84.99
2018-12-24T01:23:08.301Z,84.93
2018-12-24T01:24:13.449Z,84.94
2018-12-24T01:28:18.309Z,84.94
2018-12-24T01:29:23.178Z,84.83
2018-12-24T01:30:28.088Z,84.97
2018-12-24T01:33:52.929Z,84.96
2018-12-24T01:34:57.844Z,84.55
2018-12-24T01:37:27.044Z,84.54
2018-12-24T01:38:31.958Z,84.56
2018-12-24T01:42:36.629Z,84.58
2018-12-24T01:43:41.525Z,84.49
2018-12-24T01:44:46.429Z,84.52
2018-12-24T01:45:51.614Z,84.57
2018-12-24T01:46:57.048Z,84.54
2018-12-24T01:48:01.944Z,84.46
2018-12-24T01:50:50.211Z,84.35
2018-12-24T01:53:19.093Z,84.34
2018-12-24T01:54:23.996Z,84.33
2018-12-24T01:55:48.097Z,84.29
2018-12-24T02:00:17.854Z,84.08
2018-12-24T02:01:22.836Z,83.94
2018-12-24T02:02:28.079Z,83.97
2018-12-24T02:03:33.001Z,84.02
2018-12-24T02:04:37.895Z,83.90
2018-12-24T02:07:12.389Z,84.01
2018-12-24T02:09:41.328Z,83.98
2018-12-24T02:10:46.229Z,84.06
2018-12-24T02:12:10.539Z,83.92
2018-12-24T02:13:34.662Z,83.84
2018-12-24T02:14:39.891Z,83.82
2018-12-24T02:17:08.735Z,83.74
2018-12-24T02:18:33.048Z,83.72
2018-12-24T02:21:07.693Z,83.62
2018-12-24T02:22:13.011Z,83.62
2018-12-24T02:23:38.599Z,83.62
2018-12-24T02:24:43.861Z,83.64
2018-12-24T02:25:48.781Z,83.60
2018-12-24T02:26:53.716Z,83.50
2018-12-24T02:27:58.623Z,83.44
2018-12-24T02:29:03.535Z,83.55
2018-12-24T02:30:27.525Z,83.58
2018-12-24T02:31:51.871Z,83.45
2018-12-24T02:32:56.794Z,83.46
2018-12-24T02:35:25.634Z,83.53
2018-12-24T02:36:30.535Z,83.31
2018-12-24T02:37:35.775Z,83.27
2018-12-24T02:38:40.703Z,83.25
2018-12-24T02:39:45.693Z,83.22
2018-12-24T02:40:50.900Z,83.11
2018-12-24T02:41:55.823Z,83.23
2018-12-24T02:48:20.548Z,83.09
2018-12-24T02:49:25.447Z,83.08
2018-12-24T02:50:30.353Z,83.13
2018-12-24T02:51:35.263Z,83.02
2018-12-24T02:52:59.559Z,83.08
2018-12-24T02:55:35.173Z,83.19
2018-12-24T02:56:40.366Z,83.03
2018-12-24T02:57:45.280Z,82.97
2018-12-24T02:58:50.191Z,83.00
2018-12-24T03:00:06.973Z,83.02
2018-12-24T03:01:12.152Z,83.10
2018-12-24T03:02:17.067Z,83.05
2018-12-24T03:04:45.927Z,82.84
2018-12-24T03:05:50.843Z,82.89
2018-12-24T03:06:55.760Z,82.85
2018-12-24T03:08:00.660Z,82.92
2018-12-24T03:09:46.326Z,82.78
2018-12-24T03:10:51.565Z,82.73
2018-12-24T03:11:56.784Z,82.68
2018-12-24T03:13:03.005Z,82.69
2018-12-24T03:14:27.802Z,82.71
2018-12-24T03:15:52.166Z,82.55
2018-12-24T03:16:57.409Z,82.54
2018-12-24T03:18:02.911Z,82.56
2018-12-24T03:19:07.842Z,82.67
2018-12-24T03:20:12.738Z,82.58
2018-12-24T03:21:17.644Z,82.51
2018-12-24T03:22:41.625Z,82.47
2018-12-24T03:23:46.514Z,82.41
2018-12-24T03:24:51.435Z,82.35
2018-12-24T03:25:56.333Z,82.26
2018-12-24T03:28:44.299Z,82.41
2018-12-24T03:29:49.210Z,82.34
2018-12-24T03:30:54.153Z,82.30
2018-12-24T03:31:59.042Z,82.41
2018-12-24T03:33:03.966Z,82.41
2018-12-24T03:34:08.862Z,82.43
2018-12-24T03:35:32.838Z,82.39
2018-12-24T03:36:58.963Z,82.39
2018-12-24T03:38:23.332Z,82.33
2018-12-24T03:41:11.679Z,82.22
2018-12-24T03:42:16.597Z,82.03
2018-12-24T03:43:21.514Z,82.01
2018-12-24T03:44:26.703Z,82.03
2018-12-24T03:45:31.905Z,82.05
2018-12-24T03:46:36.804Z,82.05
2018-12-24T03:47:41.756Z,82.13
2018-12-24T03:50:10.911Z,82.07
2018-12-24T03:54:46.527Z,81.97
2018-12-24T03:55:51.731Z,81.97
2018-12-24T03:58:22.695Z,81.90
2018-12-24T04:02:34.331Z,81.79
2018-12-24T04:03:39.230Z,81.80
2018-12-24T04:06:08.070Z,81.82
2018-12-24T04:07:13.296Z,81.72
2018-12-24T04:08:21.310Z,81.75
2018-12-24T04:09:45.301Z,81.74
2018-12-24T04:11:09.590Z,81.74
2018-12-24T04:13:38.782Z,81.69
2018-12-24T04:14:43.693Z,81.61
2018-12-24T04:17:12.604Z,81.64
2018-12-24T04:19:43.974Z,81.64
2018-12-24T04:20:48.886Z,81.70
2018-12-24T04:21:54.069Z,81.73
2018-12-24T04:24:23.184Z,81.69
2018-12-24T04:25:28.111Z,81.63
2018-12-24T04:26:33.743Z,81.63
2018-12-24T04:27:41.987Z,81.60
2018-12-24T04:29:05.435Z,81.65
2018-12-24T04:30:29.412Z,81.55
2018-12-24T04:31:34.632Z,81.55
2018-12-24T04:32:39.528Z,81.51
2018-12-24T04:33:44.445Z,81.61
2018-12-24T04:34:49.350Z,81.64
2018-12-24T04:35:54.254Z,81.58
2018-12-24T04:36:59.719Z,81.45
2018-12-24T04:38:04.930Z,81.39
2018-12-24T04:39:09.851Z,81.54
2018-12-24T04:40:14.751Z,81.61
2018-12-24T04:42:43.952Z,81.57
2018-12-24T04:43:48.848Z,81.43
2018-12-24T04:46:17.688Z,81.54
2018-12-24T04:47:22.589Z,81.46
2018-12-24T04:48:27.502Z,81.48
2018-12-24T04:49:32.404Z,81.51
2018-12-24T04:50:37.583Z,81.55
2018-12-24T04:53:06.426Z,81.50
2018-12-24T04:54:11.352Z,81.49
2018-12-24T04:55:16.266Z,81.57
2018-12-24T04:56:21.171Z,81.58
2018-12-24T04:57:26.405Z,81.62
2018-12-24T05:01:25.041Z,81.49
2018-12-24T05:02:29.953Z,81.50
2018-12-24T05:03:35.146Z,81.39
2018-12-24T05:04:51.750Z,81.25
2018-12-24T05:05:56.663Z,81.19
2018-12-24T05:07:01.853Z,81.14
2018-12-24T05:09:30.705Z,81.18
2018-12-24T05:11:59.791Z,81.20
2018-12-24T05:13:04.705Z,81.10
2018-12-24T05:14:09.975Z,81.24
2018-12-24T05:15:14.869Z,81.13
2018-12-24T05:16:38.890Z,81.15
2018-12-24T05:19:08.072Z,81.16
2018-12-24T05:20:13.275Z,81.15
2018-12-24T05:21:18.178Z,80.95
2018-12-24T05:22:23.084Z,81.04
2018-12-24T05:23:47.380Z,81.04
2018-12-24T05:24:52.298Z,80.99
2018-12-24T05:25:57.193Z,81.01
2018-12-24T05:27:02.096Z,81.01
2018-12-24T05:28:26.246Z,81.01
2018-12-24T05:29:31.111Z,81.05
2018-12-24T05:30:36.032Z,81.04
2018-12-24T05:31:40.976Z,81.10
2018-12-24T05:32:45.897Z,81.07
2018-12-24T05:35:15.082Z,80.92
2018-12-24T05:37:50.141Z,80.81
2018-12-24T05:40:18.989Z,80.77
2018-12-24T05:41:23.886Z,80.61
2018-12-24T05:42:28.799Z,80.68
2018-12-24T05:43:33.710Z,80.70
2018-12-24T05:44:38.617Z,80.68
2018-12-24T05:50:25.969Z,80.74
2018-12-24T05:51:30.884Z,80.70
2018-12-24T05:52:35.789Z,80.64
2018-12-24T05:53:40.711Z,80.66
2018-12-24T05:54:45.632Z,80.79
2018-12-24T05:56:09.675Z,80.92
2018-12-24T05:57:14.835Z,80.93
2018-12-24T05:58:19.740Z,80.86
2018-12-24T05:59:24.648Z,80.82
2018-12-24T06:00:29.558Z,80.88
2018-12-24T06:01:34.512Z,80.84
2018-12-24T06:02:39.492Z,80.81
2018-12-24T06:03:44.663Z,80.78
2018-12-24T06:04:49.589Z,80.83
2018-12-24T06:05:54.496Z,80.74
2018-12-24T06:07:12.062Z,80.67
2018-12-24T06:08:16.991Z,80.61
2018-12-24T06:09:42.567Z,80.56
2018-12-24T06:10:47.484Z,80.50
2018-12-24T06:11:52.391Z,80.43
2018-12-24T06:12:57.309Z,80.46
2018-12-24T06:14:02.478Z,80.48
2018-12-24T06:15:07.409Z,80.46
2018-12-24T06:16:12.317Z,80.44
2018-12-24T06:17:17.559Z,80.41
2018-12-24T06:18:22.463Z,80.48
2018-12-24T06:19:27.377Z,80.49
2018-12-24T06:20:37.605Z,80.43
2018-12-24T06:21:58.574Z,80.37
2018-12-24T06:25:59.659Z,80.35
2018-12-24T06:30:11.978Z,80.48
2018-12-24T06:31:16.905Z,80.43
2018-12-24T06:32:22.144Z,80.40
2018-12-24T06:34:50.978Z,80.34
2018-12-24T06:38:49.435Z,80.41
2018-12-24T06:39:54.375Z,80.27
2018-12-24T06:40:59.279Z,80.31
2018-12-24T06:44:52.085Z,80.30
2018-12-24T06:45:56.992Z,80.27
2018-12-24T06:47:01.896Z,80.33
2018-12-24T06:48:07.075Z,80.34
2018-12-24T06:49:11.986Z,80.35
2018-12-24T06:50:17.214Z,80.32
2018-12-24T06:51:22.113Z,80.16
2018-12-24T06:52:27.279Z,80.11
2018-12-24T06:54:56.111Z,80.16
2018-12-24T06:56:01.047Z,80.16
2018-12-24T06:57:06.036Z,80.09
2018-12-24T06:58:11.551Z,80.10
2018-12-24T07:00:42.892Z,80.03
2018-12-24T07:01:47.811Z,80.07
2018-12-24T07:02:52.715Z,80.06
2018-12-24T07:03:57.655Z,79.98
2018-12-24T07:05:02.515Z,79.92
2018-12-24T07:06:07.766Z,79.84
2018-12-24T07:07:12.676Z,79.85
2018-12-24T07:09:55.514Z,79.84
2018-12-24T07:11:00.425Z,79.88
2018-12-24T07:12:05.344Z,79.71
2018-12-24T07:14:39.911Z,79.56
2018-12-24T07:15:45.132Z,79.34
2018-12-24T07:16:50.027Z,79.55
2018-12-24T07:17:54.940Z,79.66
2018-12-24T07:20:24.096Z,79.62
2018-12-24T07:21:29.005Z,79.58
2018-12-24T07:23:58.224Z,79.76
2018-12-24T07:25:03.119Z,79.68
2018-12-24T07:26:27.098Z,79.49
2018-12-24T07:28:59.178Z,79.46
2018-12-24T07:30:21.969Z,79.52
2018-12-24T07:31:26.876Z,79.53
2018-12-24T07:32:31.807Z,79.63
2018-12-24T07:33:36.706Z,79.53
2018-12-24T07:36:05.566Z,79.39
2018-12-24T07:37:10.470Z,79.29
2018-12-24T07:38:15.387Z,79.23
2018-12-24T07:42:08.547Z,79.09
2018-12-24T07:43:13.473Z,79.07
2018-12-24T07:44:24.092Z,79.05
2018-12-24T07:45:44.653Z,79.08
2018-12-24T07:49:37.447Z,78.80
2018-12-24T07:50:42.350Z,78.82
2018-12-24T07:51:47.255Z,78.87
2018-12-24T07:52:52.475Z,78.97
2018-12-24T07:53:57.943Z,78.90
2018-12-24T08:01:01.492Z,78.54
2018-12-24T08:08:11.556Z,78.57
2018-12-24T08:09:16.725Z,78.76
2018-12-24T08:10:21.910Z,78.72
2018-12-24T08:11:38.485Z,78.76
2018-12-24T08:12:43.773Z,78.76
2018-12-24T08:19:48.218Z,78.17
2018-12-24T08:22:17.081Z,77.96
2018-12-24T08:23:22.069Z,78.06
2018-12-24T08:25:51.261Z,77.99
2018-12-24T08:26:56.171Z,78.07
2018-12-24T08:28:01.102Z,77.95
2018-12-24T08:29:25.424Z,77.91
2018-12-24T08:30:30.328Z,77.84
2018-12-24T08:31:35.307Z,77.68
2018-12-24T08:32:59.276Z,77.54
2018-12-24T08:34:04.194Z,77.53
2018-12-24T08:35:09.118Z,77.46
2018-12-24T08:37:37.960Z,77.33
2018-12-24T08:39:01.986Z,77.22
2018-12-24T08:40:06.891Z,77.20
2018-12-24T08:41:30.795Z,76.94
2018-12-24T08:42:35.696Z,76.76
2018-12-24T08:43:40.884Z,76.76
2018-12-24T08:46:09.739Z,76.59
2018-12-24T08:47:14.735Z,76.54
2018-12-24T08:48:20.352Z,76.55
2018-12-24T08:52:13.142Z,76.25
2018-12-24T08:57:29.883Z,76.33
2018-12-24T08:58:34.787Z,76.19
2018-12-24T08:59:39.692Z,76.13
2018-12-24T09:00:44.589Z,76.07
2018-12-24T09:01:49.484Z,76.08
2018-12-24T09:04:24.971Z,75.89
2018-12-24T09:05:29.871Z,75.47
2018-12-24T09:06:35.084Z,75.64
2018-12-24T09:07:39.992Z,75.56
2018-12-24T09:08:44.952Z,75.52
2018-12-24T09:09:49.870Z,75.46
2018-12-24T09:12:21.261Z,75.31
2018-12-24T09:13:38.248Z,74.85
2018-12-24T09:14:50.187Z,74.72
2018-12-24T09:16:09.185Z,74.57
2018-12-24T09:17:14.103Z,74.58
2018-12-24T09:18:19.001Z,74.46
2018-12-24T09:20:52.562Z,74.42
2018-12-24T09:22:14.147Z,74.34
2018-12-24T09:23:19.059Z,74.04
2018-12-24T09:24:43.155Z,74.06
2018-12-24T09:27:12.631Z,74.01
2018-12-24T09:29:47.977Z,73.89
2018-12-24T09:30:53.521Z,73.68
2018-12-24T09:31:58.413Z,73.69
2018-12-24T09:33:03.400Z,73.59
2018-12-24T09:34:08.518Z,73.62
2018-12-24T09:35:13.450Z,73.41
2018-12-24T09:36:37.435Z,73.36
2018-12-24T09:37:42.343Z,73.37
2018-12-24T09:38:47.279Z,72.79
2018-12-24T09:41:16.143Z,72.85
2018-12-24T09:42:40.109Z,72.74
2018-12-24T09:43:45.051Z,72.72
2018-12-24T09:44:58.778Z,72.38
2018-12-24T09:46:19.958Z,72.33
2018-12-24T09:47:24.907Z,71.93
2018-12-24T09:48:49.026Z,71.58
2018-12-24T09:49:54.386Z,71.37
2018-12-24T09:50:59.373Z,71.24
2018-12-24T09:52:23.341Z,71.05
2018-12-24T09:53:28.247Z,71.09
2018-12-24T09:54:33.159Z,70.80
2018-12-24T09:57:02.054Z,70.91
2018-12-24T09:59:31.018Z,70.93
2018-12-24T10:00:55.059Z,70.79
2018-12-24T10:01:59.969Z,70.73
2018-12-24T10:03:26.434Z,70.03
2018-12-24T10:04:54.665Z,70.05
2018-12-24T10:06:21.220Z,70.14
2018-12-24T10:07:49.068Z,70.32
2018-12-24T10:10:38.499Z,70.42
2018-12-24T10:11:43.644Z,70.44
2018-12-24T10:12:48.837Z,70.46
2018-12-24T10:14:13.117Z,70.45
2018-12-24T10:15:29.740Z,70.25
2018-12-24T10:16:34.651Z,70.18
2018-12-24T10:17:39.845Z,70.04
2018-12-24T10:18:44.737Z,70.06
2018-12-24T10:19:49.648Z,70.00
2018-12-24T10:20:54.705Z,69.96
2018-12-24T10:21:59.563Z,69.84
2018-12-24T10:23:04.755Z,69.77
2018-12-24T10:24:09.658Z,69.70
2018-12-24T10:25:14.562Z,69.59
2018-12-24T10:27:43.484Z,69.50
2018-12-24T10:30:12.306Z,69.55
2018-12-24T10:31:17.231Z,69.17
2018-12-24T10:32:22.443Z,69.11
2018-12-24T10:34:56.949Z,69.13
2018-12-24T10:36:01.893Z,68.86
2018-12-24T10:37:25.979Z,68.75
2018-12-24T10:38:30.882Z,68.51
2018-12-24T10:39:36.100Z,68.30
2018-12-24T10:41:03.673Z,68.21
2018-12-24T10:43:32.541Z,67.85
2018-12-24T10:46:01.372Z,67.47
2018-12-24T10:48:36.362Z,67.32
2018-12-24T10:49:41.262Z,66.73
2018-12-24T10:50:46.488Z,66.85
2018-12-24T10:52:10.786Z,66.74
2018-12-24T10:54:58.855Z,66.47
2018-12-24T10:56:03.838Z,66.40
2018-12-24T10:57:08.743Z,66.36
2018-12-24T10:58:13.686Z,65.83
2018-12-24T11:00:42.542Z,65.36
2018-12-24T11:01:47.452Z,65.32
2018-12-24T11:03:11.552Z,65.29
2018-12-24T11:04:35.831Z,65.21
2018-12-24T11:05:40.725Z,65.15
2018-12-24T11:06:45.652Z,65.29
2018-12-24T11:07:50.550Z,65.17
2018-12-24T11:08:55.448Z,65.14
2018-12-24T11:10:00.494Z,65.08
2018-12-24T11:11:30.944Z,64.99
2018-12-24T11:12:35.862Z,64.96
2018-12-24T11:13:40.789Z,64.97
2018-12-24T11:14:45.685Z,64.95
2018-12-24T11:17:26.766Z,64.51
2018-12-24T11:20:00.016Z,63.90
2018-12-24T11:21:04.992Z,63.48
2018-12-24T11:22:09.926Z,63.27
2018-12-24T11:23:14.831Z,63.13
2018-12-24T11:24:19.739Z,62.99
2018-12-24T11:25:24.671Z,62.58
2018-12-24T11:26:29.581Z,62.24
2018-12-24T11:27:34.494Z,62.28
2018-12-24T11:28:39.386Z,61.77
2018-12-24T11:29:44.301Z,61.62
2018-12-24T11:30:49.229Z,61.10
2018-12-24T11:33:18.373Z,61.21
2018-12-24T11:34:42.407Z,61.06
2018-12-24T11:37:29.604Z,60.82
2018-12-24T11:38:53.006Z,60.88
2018-12-24T11:39:57.976Z,60.96
2018-12-24T11:42:26.821Z,60.93
2018-12-24T11:43:31.738Z,61.11
2018-12-24T11:44:36.665Z,61.15
2018-12-24T11:47:05.530Z,61.03
2018-12-24T11:48:10.452Z,60.43
2018-12-24T11:49:15.366Z,60.49
2018-12-24T11:50:39.721Z,60.52
2018-12-24T11:53:27.815Z,60.37
2018-12-24T11:54:32.728Z,60.21
2018-12-24T11:55:37.633Z,60.20
2018-12-24T11:58:24.573Z,60.19
2018-12-24T11:59:29.471Z,60.07
2018-12-24T12:00:34.386Z,60.11
2018-12-24T12:01:39.288Z,60.01
2018-12-24T12:03:03.254Z,60.08
2018-12-24T12:04:08.162Z,60.13
2018-12-24T12:05:32.199Z,60.03
2018-12-24T12:06:37.279Z,59.93
2018-12-24T12:08:01.391Z,59.91
2018-12-24T12:10:31.688Z,59.85
2018-12-24T12:13:03.048Z,60.04
2018-12-24T12:14:08.240Z,60.17
2018-12-24T12:15:13.177Z,60.04
2018-12-24T12:16:18.387Z,59.96
2018-12-24T12:17:23.639Z,60.01
2018-12-24T12:18:28.830Z,60.15
2018-12-24T12:19:45.975Z,60.09
2018-12-24T12:20:52.666Z,60.22
2018-12-24T12:22:17.605Z,60.19
2018-12-24T12:23:22.527Z,60.12
2018-12-24T12:24:27.452Z,60.22
2018-12-24T12:25:32.364Z,60.17
2018-12-24T12:26:37.274Z,60.16
2018-12-24T12:27:42.186Z,60.24
2018-12-24T12:32:17.869Z,60.27
2018-12-24T12:33:22.792Z,60.37
2018-12-24T12:35:51.623Z,60.36
2018-12-24T12:38:29.811Z,60.26
2018-12-24T12:39:51.423Z,60.23
2018-12-24T12:40:56.366Z,60.28
2018-12-24T12:42:01.501Z,60.32
2018-12-24T12:44:30.948Z,60.38
2018-12-24T12:47:18.851Z,60.22
2018-12-24T12:52:13.103Z,60.29
2018-12-24T12:53:18.016Z,60.35
2018-12-24T12:57:11.125Z,60.35
2018-12-24T12:58:16.383Z,60.24
2018-12-24T12:59:21.294Z,60.30
2018-12-24T13:00:26.208Z,60.27
2018-12-24T13:01:31.113Z,60.12
2018-12-24T13:02:36.033Z,59.99
2018-12-24T13:04:00.126Z,59.78
2018-12-24T13:05:44.684Z,59.65
2018-12-24T13:08:31.639Z,59.49
2018-12-24T13:09:36.531Z,59.56
2018-12-24T13:10:41.431Z,59.62
2018-12-24T13:11:46.336Z,59.48
2018-12-24T13:12:51.566Z,59.37
2018-12-24T13:14:15.857Z,59.34
2018-12-24T13:15:20.773Z,59.43
2018-12-24T13:16:25.683Z,59.38
2018-12-24T13:19:13.595Z,59.20
2018-12-24T13:20:25.027Z,59.14
2018-12-24T13:21:44.596Z,59.32
2018-12-24T13:22:49.516Z,59.39
2018-12-24T13:25:18.365Z,59.42
2018-12-24T13:26:23.291Z,59.41
2018-12-24T13:28:52.448Z,59.55
2018-12-24T13:29:57.703Z,59.52
2018-12-24T13:31:02.637Z,59.65
2018-12-24T13:32:07.542Z,59.74
2018-12-24T13:33:31.847Z,59.83
2018-12-24T13:34:36.828Z,59.88
2018-12-24T13:35:42.129Z,59.95
2018-12-24T13:36:47.370Z,60.02
2018-12-24T13:37:52.547Z,60.07
2018-12-24T13:38:57.436Z,60.15
2018-12-24T13:40:02.607Z,60.17
2018-12-24T13:41:07.793Z,60.26
2018-12-24T13:42:12.697Z,60.25
2018-12-24T13:43:17.612Z,60.29
2018-12-24T13:44:22.516Z,60.27
2018-12-24T13:46:51.347Z,60.29
2018-12-24T13:49:20.208Z,60.31
2018-12-24T13:51:49.049Z,60.36
2018-12-24T13:52:53.968Z,60.42
2018-12-24T13:53:58.878Z,60.47
2018-12-24T13:55:24.302Z,60.55
2018-12-24T13:56:29.206Z,60.58
2018-12-24T13:57:34.102Z,60.59
2018-12-24T13:58:39.010Z,60.58
2018-12-24T13:59:43.961Z,60.56
2018-12-24T14:00:49.220Z,60.58
2018-12-24T14:01:54.109Z,60.55
2018-12-24T14:04:25.451Z,60.57
2018-12-24T14:05:30.358Z,60.66
2018-12-24T14:06:35.291Z,60.73
2018-12-24T14:07:40.208Z,60.79
2018-12-24T14:10:30.611Z,60.90
2018-12-24T14:11:35.842Z,60.87
2018-12-24T14:12:40.766Z,60.94
2018-12-24T14:13:45.675Z,60.96
2018-12-24T14:15:30.237Z,60.97
2018-12-24T14:16:35.403Z,60.93
2018-12-24T14:17:40.305Z,60.81
2018-12-24T14:18:45.228Z,60.79
2018-12-24T14:20:09.367Z,60.79
2018-12-24T14:21:14.263Z,60.82
2018-12-24T14:22:19.454Z,60.68
2018-12-24T14:23:24.360Z,60.64
2018-12-24T14:24:41.184Z,60.67
2018-12-24T14:25:46.375Z,60.64
2018-12-24T14:28:15.501Z,60.54
2018-12-24T14:29:20.394Z,60.56
2018-12-24T14:30:25.553Z,60.61
2018-12-24T14:32:54.660Z,60.60
2018-12-24T14:33:59.577Z,60.64
2018-12-24T14:35:04.567Z,60.65
2018-12-24T14:36:09.497Z,60.66
2018-12-24T14:37:14.407Z,60.68
2018-12-24T14:38:19.363Z,60.66
2018-12-24T14:39:24.246Z,60.63
2018-12-24T14:40:29.149Z,60.63
2018-12-24T14:43:22.018Z,60.59
2018-12-24T14:44:26.915Z,60.71
2018-12-24T14:45:31.828Z,60.75
2018-12-24T14:46:37.059Z,60.74
2018-12-24T14:47:41.981Z,60.76
2018-12-24T14:48:46.883Z,60.78
2018-12-24T14:51:16.010Z,60.83
2018-12-24T14:52:20.902Z,60.86
2018-12-24T14:53:25.817Z,60.87
2018-12-24T14:57:18.592Z,60.96
2018-12-24T14:58:42.714Z,60.99
2018-12-24T14:59:47.619Z,60.99
2018-12-24T15:00:52.843Z,61.03
2018-12-24T15:01:57.734Z,61.08
2018-12-24T15:03:02.664Z,61.11
2018-12-24T15:04:07.592Z,61.14
2018-12-24T15:05:12.496Z,61.18
2018-12-24T15:06:17.388Z,61.19
2018-12-24T15:07:22.290Z,61.20
2018-12-24T15:08:27.221Z,61.24
2018-12-24T15:09:51.339Z,61.26
2018-12-24T15:11:15.311Z,61.29
2018-12-24T15:12:39.436Z,61.32
2018-12-24T15:13:44.333Z,61.34
2018-12-24T15:14:49.235Z,61.36
2018-12-24T15:15:54.465Z,61.38
2018-12-24T15:17:18.740Z,61.45
2018-12-24T15:18:23.658Z,61.47
2018-12-24T15:21:29.459Z,61.55
2018-12-24T15:22:34.371Z,61.60
2018-12-24T15:25:21.047Z,61.69
2018-12-24T15:26:37.630Z,61.75
2018-12-24T15:29:06.481Z,61.96
2018-12-24T15:31:35.329Z,62.16
2018-12-24T15:32:40.253Z,62.26
2018-12-24T15:33:45.164Z,62.42
2018-12-24T15:34:50.364Z,62.59
2018-12-24T15:35:55.277Z,62.76
2018-12-24T15:38:24.489Z,63.02
2018-12-24T15:39:29.387Z,63.14
2018-12-24T15:41:58.216Z,63.32
2018-12-24T15:43:03.441Z,63.40
2018-12-24T15:44:08.435Z,63.45
2018-12-24T15:45:13.702Z,63.53
2018-12-24T15:46:42.649Z,63.60
2018-12-24T15:48:04.309Z,63.65
2018-12-24T15:49:09.215Z,63.69
2018-12-24T15:51:44.228Z,63.85
2018-12-24T15:52:49.139Z,63.92
2018-12-24T15:53:54.043Z,63.99
2018-12-24T15:54:58.961Z,64.09
2018-12-24T15:56:22.963Z,64.15
2018-12-24T15:57:27.866Z,64.24
2018-12-24T15:58:32.762Z,64.32
2018-12-24T16:01:01.905Z,64.45
2018-12-24T16:05:19.156Z,64.67
2018-12-24T16:06:24.050Z,64.79
2018-12-24T16:07:28.952Z,64.93
2018-12-24T16:09:58.135Z,65.14
2018-12-24T16:11:22.131Z,65.22
2018-12-24T16:12:27.030Z,65.30
2018-12-24T16:13:31.935Z,65.37
2018-12-24T16:14:36.835Z,65.43
2018-12-24T16:15:42.079Z,65.52
2018-12-24T16:17:06.120Z,65.60
2018-12-24T16:18:11.028Z,65.62
2018-12-24T16:20:57.937Z,65.71
2018-12-24T16:22:02.876Z,65.79
2018-12-24T16:23:07.783Z,65.89
2018-12-24T16:24:12.675Z,65.95
2018-12-24T16:27:03.430Z,66.21
2018-12-24T16:28:20.075Z,66.29
2018-12-24T16:29:24.984Z,66.34
2018-12-24T16:32:15.548Z,66.41
2018-12-24T16:33:20.449Z,66.38
2018-12-24T16:34:25.372Z,66.45
2018-12-24T16:36:54.514Z,66.49
2018-12-24T16:37:59.424Z,66.52
2018-12-24T16:42:18.794Z,66.63
2018-12-24T16:46:36.087Z,66.88
2018-12-24T16:49:09.533Z,67.09
2018-12-24T16:50:14.426Z,67.13
2018-12-24T16:51:19.346Z,67.11
2018-12-24T16:52:43.318Z,67.15
2018-12-24T16:53:48.567Z,67.16
2018-12-24T16:56:17.400Z,67.10
2018-12-24T16:58:48.762Z,67.21
2018-12-24T16:59:53.974Z,67.31
2018-12-24T17:02:22.802Z,67.48
2018-12-24T17:03:27.701Z,67.56
2018-12-24T17:04:32.602Z,67.66
2018-12-24T17:05:37.508Z,67.74
2018-12-24T17:09:48.208Z,68.00
2018-12-24T17:12:23.774Z,68.05
2018-12-24T17:14:52.915Z,68.09
2018-12-24T17:16:16.951Z,68.10
2018-12-24T17:17:21.850Z,68.15
2018-12-24T17:18:27.085Z,68.15
2018-12-24T17:19:31.996Z,68.20
2018-12-24T17:20:36.897Z,68.24
2018-12-24T17:21:41.845Z,68.31
2018-12-24T17:24:10.924Z,68.42
2018-12-24T17:25:15.836Z,68.45
2018-12-24T17:26:20.737Z,68.45
2018-12-24T17:27:25.654Z,68.50
2018-12-24T17:30:06.896Z,68.49
2018-12-24T17:31:11.794Z,68.47
2018-12-24T17:32:16.705Z,68.40
2018-12-24T17:33:21.642Z,68.35
2018-12-24T17:34:26.550Z,68.29
2018-12-24T17:35:31.762Z,68.25
2018-12-24T17:36:36.664Z,68.20
2018-12-24T17:37:41.579Z,68.16
2018-12-24T17:40:16.521Z,68.24
2018-12-24T17:41:21.421Z,68.38
2018-12-24T17:42:46.012Z,68.48
2018-12-24T17:43:50.932Z,68.61
2018-12-24T17:44:56.190Z,68.69
2018-12-24T17:46:01.120Z,68.81
2018-12-24T17:47:06.024Z,68.92
2018-12-24T17:48:10.921Z,69.02
2018-12-24T17:49:16.187Z,69.11
2018-12-24T17:50:21.092Z,69.19
2018-12-24T17:52:55.908Z,69.32
2018-12-24T17:54:00.887Z,69.32
2018-12-24T17:56:31.025Z,69.38
2018-12-24T17:57:35.934Z,69.38
2018-12-24T18:00:11.339Z,69.43
2018-12-24T18:01:16.259Z,69.44
2018-12-24T18:02:21.504Z,69.46
2018-12-24T18:03:45.542Z,69.50
2018-12-24T18:06:14.410Z,69.58
2018-12-24T18:07:19.569Z,69.57
2018-12-24T18:09:49.060Z,69.65
2018-12-24T18:10:53.963Z,69.67
2018-12-24T18:13:48.142Z,69.73
2018-12-24T18:14:53.095Z,69.77
2018-12-24T18:15:57.997Z,69.79
2018-12-24T18:18:26.904Z,69.89
2018-12-24T18:19:31.812Z,69.96
2018-12-24T18:20:36.723Z,70.02
2018-12-24T18:21:41.616Z,70.03
2018-12-24T18:22:46.511Z,70.08
2018-12-24T18:24:10.550Z,70.08
2018-12-24T18:25:16.058Z,70.06
2018-12-24T18:26:21.287Z,70.01
2018-12-24T18:27:26.457Z,70.01
2018-12-24T18:28:31.360Z,70.06
2018-12-24T18:29:36.302Z,70.08
2018-12-24T18:30:41.529Z,70.11
2018-12-24T18:32:05.658Z,70.06
2018-12-24T18:33:11.179Z,70.01
2018-12-24T18:34:16.086Z,69.91
2018-12-24T18:36:50.394Z,69.89
2018-12-24T18:37:55.312Z,69.91
2018-12-24T18:39:00.212Z,69.92
2018-12-24T18:40:24.403Z,69.98
2018-12-24T18:41:29.323Z,70.02
2018-12-24T18:42:34.228Z,70.06
2018-12-24T18:43:39.123Z,70.12
2018-12-24T18:46:07.968Z,70.26
2018-12-24T18:47:12.887Z,70.29
2018-12-24T18:48:17.797Z,70.32
2018-12-24T18:53:34.772Z,70.39
2018-12-24T18:54:39.689Z,70.41
2018-12-24T18:55:44.605Z,70.47
2018-12-24T18:56:49.506Z,70.48
2018-12-24T18:57:54.535Z,70.49
2018-12-24T18:58:59.456Z,70.53
2018-12-24T19:00:24.476Z,70.50
2018-12-24T19:01:29.389Z,70.47
2018-12-24T19:02:34.298Z,70.38
2018-12-24T19:03:39.212Z,70.31
2018-12-24T19:04:44.123Z,70.24
2018-12-24T19:07:12.963Z,70.09
2018-12-24T19:08:18.191Z,69.99
2018-12-24T19:09:42.221Z,70.00
2018-12-24T19:10:47.184Z,70.06
2018-12-24T19:13:16.111Z,70.36
2018-12-24T19:14:21.374Z,70.45
2018-12-24T19:15:26.277Z,70.53
2018-12-24T19:16:31.203Z,70.61
2018-12-24T19:17:41.477Z,70.68
2018-12-24T19:22:08.225Z,70.88
2018-12-24T19:23:13.138Z,70.97
2018-12-24T19:24:18.058Z,71.04
2018-12-24T19:25:22.982Z,71.06
2018-12-24T19:26:28.231Z,71.14
2018-12-24T19:29:03.401Z,71.17